Portada
METAR-TAF:

METAR-TAF

Aeropuertos :

Aeropuerto de Nálchik

Nalchik, Rusia

latitud: 43-30-46N, longitud: 043-38-12E, altitud: 445 m

Observación

El informe se hizo hace 35 minutos, a las 00:00 UTC
Viento 4 kt del oeste-suroeste
Temperatura -4°C
Humedad 74%
Presión 1029 hPa
Visibilidad 10 km o más

METAR: URMN 060000Z 24002MPS 9999 NSC M04/M08 Q1029 R24/////// NOSIG RMK QFE735

Hora: 04:35 (00:35 UTC)

Pronóstico

El informe se hizo hace 1 hora y 35 minutos, a las 23:00 UTC
Pronóstico válido del 06 a las 00 UTC al 06 a las 09 UTC
Viento 6 kt del oeste-suroeste
Visibilidad 10 km o más
Nubes dispersas a una altura de 2000 ft

TAF: URMN 052300Z 0600/0609 24003MPS 9999 SCT020

Observaciones y pronósticos meteorológicos de más de 4000 aeropuertos (mensajes METAR y TAF).

Los puntos amarillos y rojos representan las estaciones disponibles.

Ponga el ratón en el punto deseado para ver el nombre de la estación.

Haga clic para ver las observaciones y los pronósticos meteorológicos.

Para cambiar el mapa : haga clic en los botones verdes con una cruz de color negro para hacer un zoom, en el botón verde con un guión para alejar o en las flechas verdes para mapas adyacentes.


METAR-TAF: